createdAt,value
2018-02-18T00:00:44.134Z,4.00
2018-02-18T00:01:44.127Z,4.00
2018-02-18T00:02:44.120Z,4.00
2018-02-18T00:03:44.113Z,4.00
2018-02-18T00:04:44.102Z,4.00
2018-02-18T00:05:44.096Z,4.00
2018-02-18T00:06:44.095Z,4.00
2018-02-18T00:07:44.089Z,4.00
2018-02-18T00:08:44.081Z,4.00
2018-02-18T00:09:44.108Z,4.00
2018-02-18T00:10:44.067Z,4.00
2018-02-18T00:11:44.059Z,4.00
2018-02-18T00:12:44.051Z,4.00
2018-02-18T00:13:44.046Z,4.00
2018-02-18T00:14:44.045Z,4.00
2018-02-18T00:15:44.039Z,4.00
2018-02-18T00:16:44.027Z,4.00
2018-02-18T00:17:44.021Z,4.00
2018-02-18T00:18:44.019Z,4.00
2018-02-18T00:19:44.012Z,4.00
2018-02-18T00:20:44.006Z,4.00
2018-02-18T00:21:44.000Z,4.00
2018-02-18T00:22:43.994Z,4.00
2018-02-18T00:23:43.965Z,4.00
2018-02-18T00:24:43.980Z,4.00
2018-02-18T00:25:43.956Z,4.00
2018-02-18T00:26:43.950Z,4.00
2018-02-18T00:27:43.959Z,4.00
2018-02-18T00:28:43.937Z,4.00
2018-02-18T00:29:43.930Z,4.00
2018-02-18T00:30:43.920Z,4.00
2018-02-18T00:31:43.930Z,4.00
2018-02-18T00:32:43.911Z,4.00
2018-02-18T00:33:43.947Z,4.00
2018-02-18T00:34:43.894Z,4.00
2018-02-18T00:35:43.891Z,4.00
2018-02-18T00:36:43.885Z,4.00
2018-02-18T00:37:43.878Z,4.00
2018-02-18T00:38:43.889Z,4.00
2018-02-18T00:39:43.882Z,4.00
2018-02-18T00:40:43.877Z,4.00
2018-02-18T00:41:43.870Z,4.00
2018-02-18T00:42:43.846Z,4.00
2018-02-18T00:43:43.856Z,4.00
2018-02-18T00:44:43.833Z,4.00
2018-02-18T00:45:43.827Z,4.00
2018-02-18T00:46:43.819Z,4.00
2018-02-18T00:47:43.830Z,4.00
2018-02-18T00:48:43.806Z,4.00
2018-02-18T00:49:43.817Z,4.00
2018-02-18T00:50:43.794Z,4.00
2018-02-18T00:51:43.804Z,4.00
2018-02-18T00:52:43.776Z,4.00
2018-02-18T00:53:43.770Z,4.00
2018-02-18T00:54:43.768Z,4.00
2018-02-18T00:55:43.774Z,4.00
2018-02-18T00:56:43.755Z,4.00
2018-02-18T00:57:43.766Z,4.00
2018-02-18T00:58:43.745Z,4.00
2018-02-18T00:59:43.756Z,4.00
2018-02-18T01:00:43.746Z,4.00
2018-02-18T01:01:43.740Z,4.00
2018-02-18T01:02:43.734Z,4.00
2018-02-18T01:03:43.726Z,4.00
2018-02-18T01:04:43.718Z,4.00
2018-02-18T01:05:43.692Z,4.00
2018-02-18T01:06:43.691Z,4.00
2018-02-18T01:07:43.700Z,4.00
2018-02-18T01:08:43.677Z,4.00
2018-02-18T01:09:43.671Z,4.00
2018-02-18T01:10:43.682Z,4.00
2018-02-18T01:11:43.675Z,4.00
2018-02-18T01:12:43.664Z,4.00
2018-02-18T01:13:43.645Z,4.00
2018-02-18T01:14:43.656Z,4.00
2018-02-18T01:15:43.632Z,4.00
2018-02-18T01:16:43.626Z,4.00
2018-02-18T01:17:43.637Z,4.00
2018-02-18T01:18:43.626Z,4.00
2018-02-18T01:19:43.619Z,4.00
2018-02-18T01:20:43.617Z,4.00
2018-02-18T01:21:43.607Z,4.00
2018-02-18T01:22:43.583Z,4.00
2018-02-18T01:23:43.576Z,4.00
2018-02-18T01:24:43.592Z,4.00
2018-02-18T01:25:43.586Z,4.00
2018-02-18T01:26:43.563Z,4.00
2018-02-18T01:27:43.551Z,4.00
2018-02-18T01:28:43.572Z,4.00
2018-02-18T01:29:43.560Z,4.00
2018-02-18T01:30:43.556Z,4.00
2018-02-18T01:31:43.530Z,4.00
2018-02-18T01:32:43.523Z,4.00
2018-02-18T01:33:43.515Z,4.00
2018-02-18T01:34:43.528Z,4.00
2018-02-18T01:35:43.521Z,4.00
2018-02-18T01:36:43.498Z,4.00
2018-02-18T01:37:43.492Z,4.00
2018-02-18T01:38:43.499Z,4.00
2018-02-18T01:39:43.495Z,4.00
2018-02-18T01:40:43.472Z,4.00
2018-02-18T01:41:43.483Z,4.00
2018-02-18T01:42:43.456Z,4.00
2018-02-18T01:43:43.453Z,4.00
2018-02-18T01:44:43.447Z,4.00
2018-02-18T01:45:43.441Z,4.00
2018-02-18T01:46:43.435Z,4.00
2018-02-18T01:47:43.440Z,4.00
2018-02-18T01:48:43.426Z,4.00
2018-02-18T01:49:43.433Z,4.00
2018-02-18T01:50:43.405Z,4.00
2018-02-18T01:51:43.416Z,4.00
2018-02-18T01:52:43.396Z,4.00
2018-02-18T01:53:43.406Z,4.00
2018-02-18T01:54:43.400Z,4.00
2018-02-18T01:55:43.372Z,4.00
2018-02-18T01:56:43.371Z,4.00
2018-02-18T01:57:43.381Z,4.00
2018-02-18T01:58:43.373Z,4.00
2018-02-18T01:59:43.362Z,4.00
2018-02-18T02:00:43.345Z,4.00
2018-02-18T02:01:43.340Z,4.00
2018-02-18T02:02:43.334Z,4.00
2018-02-18T02:03:43.329Z,4.00
2018-02-18T02:04:43.334Z,4.00
2018-02-18T02:05:43.329Z,4.00
2018-02-18T02:06:43.318Z,4.00
2018-02-18T02:07:43.314Z,4.00
2018-02-18T02:08:43.308Z,4.00
2018-02-18T02:09:43.306Z,4.00
2018-02-18T02:10:43.300Z,4.00
2018-02-18T02:11:43.293Z,4.00
2018-02-18T02:12:43.282Z,4.00
2018-02-18T02:13:43.277Z,4.00
2018-02-18T02:14:43.270Z,4.00
2018-02-18T02:15:43.267Z,4.00
2018-02-18T02:16:43.261Z,4.00
2018-02-18T02:17:43.255Z,4.00
2018-02-18T02:18:43.243Z,4.00
2018-02-18T02:19:43.242Z,4.00
2018-02-18T02:20:43.236Z,4.00
2018-02-18T02:21:43.229Z,4.00
2018-02-18T02:22:43.217Z,4.00
2018-02-18T02:23:43.216Z,4.00
2018-02-18T02:24:43.208Z,4.00
2018-02-18T02:25:43.204Z,4.00
2018-02-18T02:26:43.195Z,4.00
2018-02-18T02:27:43.190Z,4.00
2018-02-18T02:28:43.182Z,4.00
2018-02-18T02:29:43.178Z,4.00
2018-02-18T02:30:43.166Z,4.00
2018-02-18T02:31:43.158Z,4.00
2018-02-18T02:32:43.154Z,4.00
2018-02-18T02:33:43.151Z,4.00
2018-02-18T02:34:43.138Z,4.00
2018-02-18T02:35:43.137Z,4.00
2018-02-18T02:36:43.128Z,4.00
2018-02-18T02:37:43.128Z,4.00
2018-02-18T02:38:43.119Z,4.00
2018-02-18T02:39:43.108Z,4.00
2018-02-18T02:40:43.098Z,4.00
2018-02-18T02:41:43.098Z,4.00
2018-02-18T02:42:43.092Z,4.00
2018-02-18T02:43:43.081Z,4.00
2018-02-18T02:44:43.076Z,4.00
2018-02-18T02:45:43.069Z,4.00
2018-02-18T02:46:43.065Z,4.00
2018-02-18T02:47:43.055Z,4.00
2018-02-18T02:48:43.048Z,4.00
2018-02-18T02:49:43.044Z,4.00
2018-02-18T02:50:43.035Z,4.00
2018-02-18T02:51:43.027Z,4.00
2018-02-18T02:52:43.029Z,4.00
2018-02-18T02:53:43.017Z,4.00
2018-02-18T02:54:43.008Z,4.00
2018-02-18T02:55:43.004Z,4.00
2018-02-18T02:56:42.995Z,4.00
2018-02-18T02:57:42.993Z,4.00
2018-02-18T02:58:42.983Z,4.00
2018-02-18T02:59:42.973Z,4.00
2018-02-18T03:00:42.968Z,4.00
2018-02-18T03:01:42.962Z,4.00
2018-02-18T03:02:42.956Z,4.00
2018-02-18T03:03:42.948Z,4.00
2018-02-18T03:04:42.937Z,4.00
2018-02-18T03:05:42.928Z,4.00
2018-02-18T03:06:42.924Z,4.00
2018-02-18T03:07:42.921Z,4.00
2018-02-18T03:08:42.910Z,4.00
2018-02-18T03:09:42.911Z,4.00
2018-02-18T03:10:42.901Z,4.00
2018-02-18T03:11:42.895Z,4.00
2018-02-18T03:12:42.887Z,4.00
2018-02-18T03:13:42.880Z,4.00
2018-02-18T03:14:42.875Z,4.00
2018-02-18T03:15:42.866Z,4.00
2018-02-18T03:16:42.859Z,4.00
2018-02-18T03:17:42.852Z,4.00
2018-02-18T03:18:42.846Z,4.00
2018-02-18T03:19:42.838Z,4.00
2018-02-18T03:20:42.832Z,4.00
2018-02-18T03:21:42.825Z,4.00
2018-02-18T03:22:42.814Z,4.00
2018-02-18T03:23:42.807Z,4.00
2018-02-18T03:24:42.801Z,4.00
2018-02-18T03:25:42.795Z,4.00
2018-02-18T03:26:42.787Z,4.00
2018-02-18T03:27:42.782Z,4.00
2018-02-18T03:28:42.773Z,4.00
2018-02-18T03:29:42.768Z,4.00
2018-02-18T03:30:42.766Z,4.00
2018-02-18T03:31:42.753Z,4.00
2018-02-18T03:32:42.747Z,4.00
2018-02-18T03:33:42.748Z,4.00
2018-02-18T03:34:42.738Z,4.00
2018-02-18T03:35:42.730Z,4.00
2018-02-18T03:36:42.721Z,4.00
2018-02-18T03:37:42.715Z,4.00
2018-02-18T03:38:42.707Z,4.00
2018-02-18T03:39:42.703Z,4.00
2018-02-18T03:40:42.693Z,4.00
2018-02-18T03:41:42.687Z,4.00
2018-02-18T03:42:42.680Z,4.00
2018-02-18T03:43:42.677Z,4.00
2018-02-18T03:44:42.666Z,4.00
2018-02-18T03:45:42.659Z,4.00
2018-02-18T03:46:42.660Z,4.00
2018-02-18T03:47:42.649Z,4.00
2018-02-18T03:48:42.639Z,4.00
2018-02-18T03:49:42.634Z,4.00
2018-02-18T03:50:42.627Z,4.00
2018-02-18T03:51:42.623Z,4.00
2018-02-18T03:52:42.616Z,4.00
2018-02-18T03:53:42.606Z,4.00
2018-02-18T03:54:42.599Z,4.00
2018-02-18T03:55:42.595Z,4.00
2018-02-18T03:56:42.586Z,4.00
2018-02-18T03:57:42.579Z,4.00
2018-02-18T03:58:42.572Z,4.00
2018-02-18T03:59:42.569Z,4.00
2018-02-18T04:00:42.564Z,4.00
2018-02-18T04:01:42.551Z,4.00
2018-02-18T04:02:42.549Z,4.00
2018-02-18T04:03:42.541Z,4.00
2018-02-18T04:04:42.530Z,4.00
2018-02-18T04:05:42.524Z,4.00
2018-02-18T04:06:42.520Z,4.00
2018-02-18T04:07:42.510Z,4.00
2018-02-18T04:08:42.503Z,4.00
2018-02-18T04:09:42.500Z,4.00
2018-02-18T04:10:42.490Z,4.00
2018-02-18T04:11:42.486Z,4.00
2018-02-18T04:12:42.630Z,4.00
2018-02-18T04:13:42.472Z,4.00
2018-02-18T04:14:42.465Z,4.00
2018-02-18T04:15:42.459Z,4.00
2018-02-18T04:16:42.452Z,4.00
2018-02-18T04:17:42.424Z,4.00
2018-02-18T04:18:42.439Z,4.00
2018-02-18T04:19:42.426Z,4.00
2018-02-18T04:20:42.420Z,4.00
2018-02-18T04:21:42.397Z,4.00
2018-02-18T04:22:42.387Z,4.00
2018-02-18T04:23:42.399Z,4.00
2018-02-18T04:24:42.376Z,4.00
2018-02-18T04:25:42.365Z,4.00
2018-02-18T04:26:42.357Z,4.00
2018-02-18T04:27:42.372Z,4.00
2018-02-18T04:28:42.347Z,4.00
2018-02-18T04:29:42.344Z,4.00
2018-02-18T04:30:42.331Z,4.00
2018-02-18T04:31:42.339Z,4.00
2018-02-18T04:32:42.316Z,4.00
2018-02-18T04:33:42.331Z,4.00
2018-02-18T04:34:42.310Z,4.00
2018-02-18T04:35:42.295Z,4.00
2018-02-18T04:36:42.315Z,4.00
2018-02-18T04:37:42.299Z,4.00
2018-02-18T04:38:42.276Z,4.00
2018-02-18T04:39:42.292Z,4.00
2018-02-18T04:40:42.266Z,4.00
2018-02-18T04:41:42.271Z,4.00
2018-02-18T04:42:42.252Z,4.00
2018-02-18T04:43:42.248Z,4.00
2018-02-18T04:44:42.254Z,4.00
2018-02-18T04:45:42.243Z,4.00
2018-02-18T04:46:42.236Z,4.00
2018-02-18T04:47:42.215Z,4.00
2018-02-18T04:48:42.213Z,4.00
2018-02-18T04:49:42.223Z,4.00
2018-02-18T04:50:42.217Z,4.00
2018-02-18T04:51:42.201Z,4.00
2018-02-18T04:52:42.192Z,4.00
2018-02-18T04:53:42.178Z,4.00
2018-02-18T04:54:42.188Z,4.00
2018-02-18T04:55:42.184Z,4.00
2018-02-18T04:56:42.164Z,4.00
2018-02-18T04:57:42.158Z,4.00
2018-02-18T04:58:42.152Z,4.00
2018-02-18T04:59:42.126Z,4.00
2018-02-18T05:00:42.128Z,4.00
2018-02-18T05:01:42.133Z,4.00
2018-02-18T05:02:42.115Z,4.00
2018-02-18T05:03:42.123Z,4.00
2018-02-18T05:04:42.116Z,4.00
2018-02-18T05:05:42.110Z,4.00
2018-02-18T05:06:42.081Z,4.00
2018-02-18T05:07:42.091Z,4.00
2018-02-18T05:08:42.071Z,4.00
2018-02-18T05:09:42.060Z,4.00
2018-02-18T05:10:42.053Z,4.00
2018-02-18T05:11:42.044Z,4.00
2018-02-18T05:12:42.038Z,4.00
2018-02-18T05:13:42.052Z,4.00
2018-02-18T05:14:42.029Z,4.00
2018-02-18T05:15:42.021Z,4.00
2018-02-18T05:16:42.010Z,4.00
2018-02-18T05:17:42.003Z,4.00
2018-02-18T05:18:41.996Z,4.00
2018-02-18T05:19:42.006Z,4.00
2018-02-18T05:20:41.982Z,4.00
2018-02-18T05:21:41.993Z,4.00
2018-02-18T05:22:41.968Z,4.00
2018-02-18T05:23:41.978Z,4.00
2018-02-18T05:24:41.955Z,4.00
2018-02-18T05:25:41.958Z,4.00
2018-02-18T05:26:41.964Z,4.00
2018-02-18T05:27:41.945Z,4.00
2018-02-18T05:28:41.925Z,4.00
2018-02-18T05:29:41.920Z,4.00
2018-02-18T05:30:41.912Z,4.00
2018-02-18T05:31:41.905Z,4.00
2018-02-18T05:32:41.895Z,4.00
2018-02-18T05:33:41.887Z,4.00
2018-02-18T05:34:41.885Z,4.00
2018-02-18T05:35:41.878Z,4.00
2018-02-18T05:36:41.865Z,4.00
2018-02-18T05:37:41.859Z,4.00
2018-02-18T05:38:41.858Z,4.00
2018-02-18T05:39:41.850Z,4.00
2018-02-18T05:40:41.848Z,4.00
2018-02-18T05:41:41.837Z,4.00
2018-02-18T05:42:41.934Z,4.00
2018-02-18T05:43:41.828Z,4.00
2018-02-18T05:44:41.821Z,4.00
2018-02-18T05:45:41.814Z,4.00
2018-02-18T05:46:41.808Z,4.00
2018-02-18T05:47:41.799Z,4.00
2018-02-18T05:48:41.793Z,4.00
2018-02-18T05:49:41.787Z,4.00
2018-02-18T05:50:41.782Z,4.00
2018-02-18T05:51:41.786Z,4.00
2018-02-18T05:52:41.756Z,4.00
2018-02-18T05:53:41.760Z,4.00
2018-02-18T05:54:41.752Z,4.00
2018-02-18T05:55:41.745Z,4.00
2018-02-18T05:56:41.739Z,4.00
2018-02-18T05:57:41.733Z,4.00
2018-02-18T05:58:41.726Z,4.00
2018-02-18T05:59:41.710Z,4.00
2018-02-18T06:00:41.726Z,4.00
2018-02-18T06:01:41.705Z,4.00
2018-02-18T06:02:41.698Z,4.00
2018-02-18T06:03:41.691Z,4.00
2018-02-18T06:04:41.680Z,4.00
2018-02-18T06:05:41.678Z,4.00
2018-02-18T06:06:41.687Z,4.00
2018-02-18T06:07:41.660Z,4.00
2018-02-18T06:08:41.668Z,4.00
2018-02-18T06:09:41.666Z,4.00
2018-02-18T06:10:41.659Z,4.00
2018-02-18T06:11:41.645Z,4.00
2018-02-18T06:12:41.622Z,4.00
2018-02-18T06:13:41.620Z,4.00
2018-02-18T06:14:41.608Z,4.00
2018-02-18T06:15:41.624Z,4.00
2018-02-18T06:16:41.603Z,4.00
2018-02-18T06:17:41.607Z,4.00
2018-02-18T06:18:41.590Z,4.00
2018-02-18T06:19:41.583Z,4.00
2018-02-18T06:20:41.576Z,4.00
2018-02-18T06:21:41.580Z,4.00
2018-02-18T06:22:41.574Z,4.00
2018-02-18T06:23:41.571Z,4.00
2018-02-18T06:24:41.550Z,4.00
2018-02-18T06:25:41.544Z,4.00
2018-02-18T06:26:41.537Z,4.00
2018-02-18T06:27:41.540Z,4.00
2018-02-18T06:28:41.533Z,4.00
2018-02-18T06:29:41.531Z,4.00
2018-02-18T06:30:41.506Z,4.00
2018-02-18T06:31:41.518Z,4.00
2018-02-18T06:32:41.511Z,4.00
2018-02-18T06:33:41.486Z,4.00
2018-02-18T06:34:41.497Z,4.00
2018-02-18T06:35:41.473Z,4.00
2018-02-18T06:36:41.470Z,4.00
2018-02-18T06:37:41.478Z,4.00
2018-02-18T06:38:41.470Z,4.00
2018-02-18T06:39:41.467Z,4.00
2018-02-18T06:40:41.457Z,4.00
2018-02-18T06:41:41.454Z,4.00
2018-02-18T06:42:41.443Z,4.00
2018-02-18T06:43:41.438Z,4.00
2018-02-18T06:44:41.434Z,4.00
2018-02-18T06:45:41.423Z,4.00
2018-02-18T06:46:41.416Z,4.00
2018-02-18T06:47:41.413Z,4.00
2018-02-18T06:48:41.404Z,4.00
2018-02-18T06:49:41.398Z,4.00
2018-02-18T06:50:41.394Z,4.00
2018-02-18T06:51:41.384Z,4.00
2018-02-18T06:52:41.378Z,4.00
2018-02-18T06:53:41.374Z,4.00
2018-02-18T06:54:41.363Z,4.00
2018-02-18T06:55:41.360Z,4.00
2018-02-18T06:56:41.349Z,4.00
2018-02-18T06:57:41.343Z,4.00
2018-02-18T06:58:41.335Z,4.00
2018-02-18T06:59:41.329Z,4.00
2018-02-18T07:00:41.428Z,4.00
2018-02-18T07:01:41.315Z,4.00
2018-02-18T07:02:41.310Z,4.00
2018-02-18T07:03:41.303Z,4.00
2018-02-18T07:04:41.298Z,4.00
2018-02-18T07:05:41.295Z,4.00
2018-02-18T07:06:41.289Z,4.00
2018-02-18T07:07:41.278Z,4.00
2018-02-18T07:08:41.272Z,4.00
2018-02-18T07:09:41.264Z,4.00
2018-02-18T07:10:41.258Z,4.00
2018-02-18T07:11:41.250Z,4.00
2018-02-18T07:12:41.238Z,4.00
2018-02-18T07:13:41.237Z,4.00
2018-02-18T07:14:41.226Z,4.00
2018-02-18T07:15:41.216Z,4.00
2018-02-18T07:16:41.209Z,4.00
2018-02-18T07:17:41.208Z,4.00
2018-02-18T07:18:41.198Z,4.00
2018-02-18T07:19:41.194Z,4.00
2018-02-18T07:20:41.188Z,4.00
2018-02-18T07:21:41.181Z,4.00
2018-02-18T07:22:41.174Z,4.00
2018-02-18T07:23:41.169Z,4.00
2018-02-18T07:24:41.160Z,4.00
2018-02-18T07:25:41.154Z,4.00
2018-02-18T07:26:41.147Z,4.00
2018-02-18T07:27:41.142Z,4.00
2018-02-18T07:28:41.135Z,4.00
2018-02-18T07:29:41.129Z,4.00
2018-02-18T07:30:41.120Z,4.00
2018-02-18T07:31:41.109Z,4.00
2018-02-18T07:32:41.109Z,4.00
2018-02-18T07:33:41.104Z,4.00
2018-02-18T07:34:41.093Z,4.00
2018-02-18T07:35:41.085Z,4.00
2018-02-18T07:36:41.183Z,4.00
2018-02-18T07:37:41.072Z,4.00
2018-02-18T07:38:41.067Z,4.00
2018-02-18T07:39:41.060Z,4.00
2018-02-18T07:40:41.054Z,4.00
2018-02-18T07:41:41.053Z,4.00
2018-02-18T07:42:41.141Z,4.00
2018-02-18T07:43:41.030Z,4.00
2018-02-18T07:44:41.024Z,4.00
2018-02-18T07:45:41.020Z,4.00
2018-02-18T07:46:41.013Z,4.00
2018-02-18T07:47:41.010Z,4.00
2018-02-18T07:48:41.002Z,4.00
2018-02-18T07:49:40.991Z,4.00
2018-02-18T07:50:40.984Z,4.00
2018-02-18T07:51:40.977Z,4.00
2018-02-18T07:52:40.973Z,4.00
2018-02-18T07:53:40.966Z,4.00
2018-02-18T07:54:40.957Z,4.00
2018-02-18T07:55:40.954Z,4.00
2018-02-18T07:56:40.950Z,4.00
2018-02-18T07:57:40.937Z,4.00
2018-02-18T07:58:40.931Z,4.00
2018-02-18T07:59:40.929Z,4.00
2018-02-18T08:00:40.960Z,4.00
2018-02-18T08:01:40.915Z,4.00
2018-02-18T08:02:40.909Z,4.00
2018-02-18T08:03:40.901Z,4.00
2018-02-18T08:04:40.896Z,4.00
2018-02-18T08:05:40.891Z,4.00
2018-02-18T08:06:40.882Z,4.00
2018-02-18T08:07:40.874Z,4.00
2018-02-18T08:08:40.864Z,4.00
2018-02-18T08:09:40.856Z,4.00
2018-02-18T08:10:40.851Z,4.00
2018-02-18T08:11:40.850Z,4.00
2018-02-18T08:12:40.843Z,4.00
2018-02-18T08:13:40.832Z,4.00
2018-02-18T08:14:40.819Z,4.00
2018-02-18T08:15:40.822Z,4.00
2018-02-18T08:16:40.816Z,4.00
2018-02-18T08:17:40.803Z,4.00
2018-02-18T08:18:40.801Z,4.00
2018-02-18T08:19:40.789Z,4.00
2018-02-18T08:20:40.790Z,4.00
2018-02-18T08:21:40.774Z,4.00
2018-02-18T08:22:40.774Z,4.00
2018-02-18T08:23:40.769Z,4.00
2018-02-18T08:24:40.754Z,4.00
2018-02-18T08:25:40.745Z,4.00
2018-02-18T08:26:40.741Z,4.00
2018-02-18T08:27:40.732Z,4.00
2018-02-18T08:28:40.727Z,4.00
2018-02-18T08:29:40.718Z,4.00
2018-02-18T08:30:40.711Z,4.00
2018-02-18T08:31:40.706Z,4.00
2018-02-18T08:32:40.699Z,4.00
2018-02-18T08:33:40.693Z,4.00
2018-02-18T08:34:40.684Z,4.00
2018-02-18T08:35:40.682Z,4.00
2018-02-18T08:36:40.671Z,4.00
2018-02-18T08:37:40.664Z,4.00
2018-02-18T08:38:40.669Z,4.00
2018-02-18T08:39:40.659Z,4.00
2018-02-18T08:40:40.644Z,4.00
2018-02-18T08:41:40.638Z,4.00
2018-02-18T08:42:40.631Z,4.00
2018-02-18T08:43:40.631Z,4.00
2018-02-18T08:44:40.626Z,4.00
2018-02-18T08:45:40.616Z,8.00
2018-02-18T08:46:40.611Z,8.00
2018-02-18T08:47:40.607Z,8.00
2018-02-18T08:48:40.592Z,8.00
2018-02-18T08:49:40.587Z,8.00
2018-02-18T08:50:40.581Z,8.00
2018-02-18T08:51:40.575Z,8.00
2018-02-18T08:52:40.573Z,8.00
2018-02-18T08:53:40.561Z,8.00
2018-02-18T08:54:40.543Z,8.00
2018-02-18T08:55:40.535Z,12.00
2018-02-18T08:56:40.546Z,12.00
2018-02-18T08:57:40.536Z,12.00
2018-02-18T08:58:40.517Z,12.00
2018-02-18T08:59:40.504Z,12.00
2018-02-18T09:00:40.598Z,12.00
2018-02-18T09:01:40.514Z,16.00
2018-02-18T09:02:40.492Z,12.00
2018-02-18T09:03:40.478Z,12.00
2018-02-18T09:04:40.490Z,16.00
2018-02-18T09:05:40.471Z,16.00
2018-02-18T09:06:40.477Z,20.00
2018-02-18T09:07:40.451Z,20.00
2018-02-18T09:08:40.470Z,20.00
2018-02-18T09:09:40.462Z,20.00
2018-02-18T09:10:40.456Z,28.00
2018-02-18T09:11:40.426Z,28.00
2018-02-18T09:12:40.442Z,28.00
2018-02-18T09:13:40.431Z,32.00
2018-02-18T09:14:40.430Z,36.00
2018-02-18T09:15:40.401Z,40.00
2018-02-18T09:16:40.411Z,44.00
2018-02-18T09:17:40.388Z,44.00
2018-02-18T09:18:40.398Z,48.00
2018-02-18T09:19:40.384Z,48.00
2018-02-18T09:20:40.394Z,52.00
2018-02-18T09:21:40.367Z,52.00
2018-02-18T09:22:40.370Z,56.00
2018-02-18T09:23:40.365Z,60.00
2018-02-18T09:24:40.360Z,60.00
2018-02-18T09:25:40.353Z,60.00
2018-02-18T09:26:40.339Z,60.00
2018-02-18T09:27:40.344Z,60.00
2018-02-18T09:28:40.333Z,64.00
2018-02-18T09:29:40.319Z,64.00
2018-02-18T09:30:40.430Z,60.00
2018-02-18T09:31:40.313Z,60.00
2018-02-18T09:32:40.295Z,60.00
2018-02-18T09:33:40.284Z,60.00
2018-02-18T09:34:40.302Z,64.00
2018-02-18T09:35:40.276Z,64.00
2018-02-18T09:36:40.364Z,68.00
2018-02-18T09:37:40.275Z,72.00
2018-02-18T09:38:40.261Z,76.00
2018-02-18T09:39:40.262Z,72.00
2018-02-18T09:40:40.271Z,76.00
2018-02-18T09:41:40.234Z,80.00
2018-02-18T09:42:40.336Z,84.00
2018-02-18T09:43:40.236Z,84.00
2018-02-18T09:44:40.222Z,88.00
2018-02-18T09:45:40.233Z,88.00
2018-02-18T09:46:40.201Z,88.00
2018-02-18T09:47:40.216Z,88.00
2018-02-18T09:48:40.188Z,84.00
2018-02-18T09:49:40.208Z,84.00
2018-02-18T09:50:40.192Z,88.00
2018-02-18T09:51:40.168Z,92.00
2018-02-18T09:52:40.188Z,100.00
2018-02-18T09:53:40.156Z,116.00
2018-02-18T09:54:40.171Z,120.00
2018-02-18T09:55:40.168Z,128.00
2018-02-18T09:56:40.137Z,132.00
2018-02-18T09:57:40.147Z,132.00
2018-02-18T09:58:40.133Z,136.00
2018-02-18T09:59:40.117Z,136.00
2018-02-18T10:00:40.135Z,136.00
2018-02-18T10:01:40.120Z,132.00
2018-02-18T10:02:40.119Z,124.00
2018-02-18T10:03:40.108Z,120.00
2018-02-18T10:04:40.110Z,108.00
2018-02-18T10:05:40.100Z,100.00
2018-02-18T10:06:40.089Z,96.00
2018-02-18T10:07:40.089Z,92.00
2018-02-18T10:08:40.076Z,92.00
2018-02-18T10:09:40.080Z,96.00
2018-02-18T10:10:40.078Z,96.00
2018-02-18T10:11:40.057Z,100.00
2018-02-18T10:12:40.051Z,100.00
2018-02-18T10:13:40.055Z,104.00
2018-02-18T10:14:40.049Z,108.00
2018-02-18T10:15:40.033Z,108.00
2018-02-18T10:16:40.027Z,112.00
2018-02-18T10:17:40.030Z,112.00
2018-02-18T10:18:40.024Z,112.00
2018-02-18T10:19:40.018Z,120.00
2018-02-18T10:20:40.011Z,120.00
2018-02-18T10:21:40.006Z,124.00
2018-02-18T10:22:39.991Z,128.00
2018-02-18T10:23:40.034Z,128.00
2018-02-18T10:24:39.977Z,132.00
2018-02-18T10:25:39.971Z,136.00
2018-02-18T10:26:39.967Z,140.00
2018-02-18T10:27:39.968Z,144.00
2018-02-18T10:28:39.962Z,144.00
2018-02-18T10:29:39.956Z,152.00
2018-02-18T10:30:40.051Z,156.00
2018-02-18T10:31:39.937Z,164.00
2018-02-18T10:32:39.941Z,168.00
2018-02-18T10:33:39.935Z,172.00
2018-02-18T10:34:39.926Z,176.00
2018-02-18T10:35:39.920Z,180.00
2018-02-18T10:36:39.921Z,184.00
2018-02-18T10:37:39.893Z,192.00
2018-02-18T10:38:39.878Z,204.00
2018-02-18T10:39:39.872Z,216.00
2018-02-18T10:40:39.866Z,228.00
2018-02-18T10:41:39.880Z,236.00
2018-02-18T10:42:39.879Z,248.00
2018-02-18T10:43:39.853Z,252.00
2018-02-18T10:44:39.857Z,252.00
2018-02-18T10:45:39.845Z,256.00
2018-02-18T10:46:39.851Z,260.00
2018-02-18T10:47:39.849Z,264.00
2018-02-18T10:48:39.824Z,268.00
2018-02-18T10:49:39.822Z,272.00
2018-02-18T10:50:39.827Z,272.00
2018-02-18T10:51:39.821Z,276.00
2018-02-18T10:52:39.800Z,276.00
2018-02-18T10:53:39.808Z,276.00
2018-02-18T10:54:39.820Z,276.00
2018-02-18T10:55:39.801Z,268.00
2018-02-18T10:56:39.777Z,268.00
2018-02-18T10:57:39.772Z,260.00
2018-02-18T10:58:39.771Z,256.00
2018-02-18T10:59:39.759Z,248.00
2018-02-18T11:00:39.769Z,244.00
2018-02-18T11:01:39.768Z,244.00
2018-02-18T11:02:39.748Z,248.00
2018-02-18T11:03:39.756Z,252.00
2018-02-18T11:04:39.736Z,252.00
2018-02-18T11:05:39.730Z,264.00
2018-02-18T11:06:39.735Z,276.00
2018-02-18T11:07:39.717Z,280.00
2018-02-18T11:08:39.726Z,288.00
2018-02-18T11:09:39.703Z,288.00
2018-02-18T11:10:39.715Z,284.00
2018-02-18T11:11:39.716Z,288.00
2018-02-18T11:12:39.707Z,296.00
2018-02-18T11:13:39.702Z,300.00
2018-02-18T11:14:39.692Z,304.00
2018-02-18T11:15:39.686Z,308.00
2018-02-18T11:16:39.684Z,320.00
2018-02-18T11:17:39.686Z,324.00
2018-02-18T11:18:39.669Z,332.00
2018-02-18T11:19:39.667Z,336.00
2018-02-18T11:20:39.663Z,352.00
2018-02-18T11:21:39.653Z,364.00
2018-02-18T11:22:39.652Z,368.00
2018-02-18T11:23:39.645Z,368.00
2018-02-18T11:24:39.640Z,360.00
2018-02-18T11:25:39.635Z,360.00
2018-02-18T11:26:39.630Z,364.00
2018-02-18T11:27:39.624Z,376.00
2018-02-18T11:28:39.619Z,400.00
2018-02-18T11:29:39.609Z,428.00
2018-02-18T11:30:39.608Z,456.00
2018-02-18T11:31:39.597Z,480.00
2018-02-18T11:32:39.592Z,512.00
2018-02-18T11:33:39.592Z,528.00
2018-02-18T11:34:39.590Z,552.00
2018-02-18T11:35:39.581Z,552.00
2018-02-18T11:36:39.671Z,528.00
2018-02-18T11:37:39.570Z,520.00
2018-02-18T11:38:39.565Z,512.00
2018-02-18T11:39:39.559Z,512.00
2018-02-18T11:40:39.554Z,504.00
2018-02-18T11:41:39.545Z,492.00
2018-02-18T11:42:39.547Z,488.00
2018-02-18T11:43:39.538Z,480.00
2018-02-18T11:44:39.535Z,492.00
2018-02-18T11:45:39.529Z,500.00
2018-02-18T11:46:39.522Z,500.00
2018-02-18T11:47:39.511Z,488.00
2018-02-18T11:48:39.513Z,484.00
2018-02-18T11:49:39.505Z,488.00
2018-02-18T11:50:39.499Z,488.00
2018-02-18T11:51:39.491Z,492.00
2018-02-18T11:52:39.489Z,488.00
2018-02-18T11:53:39.482Z,492.00
2018-02-18T11:54:39.480Z,484.00
2018-02-18T11:55:39.471Z,476.00
2018-02-18T11:56:39.471Z,460.00
2018-02-18T11:57:39.470Z,460.00
2018-02-18T11:58:39.460Z,460.00
2018-02-18T11:59:39.453Z,444.00
2018-02-18T12:00:39.548Z,420.00
2018-02-18T12:01:39.444Z,404.00
2018-02-18T12:02:39.436Z,408.00
2018-02-18T12:03:39.431Z,416.00
2018-02-18T12:04:39.426Z,436.00
2018-02-18T12:05:39.421Z,452.00
2018-02-18T12:06:39.420Z,460.00
2018-02-18T12:07:39.413Z,476.00
2018-02-18T12:08:39.407Z,508.00
2018-02-18T12:09:39.405Z,536.00
2018-02-18T12:10:39.454Z,568.00
2018-02-18T12:11:39.394Z,588.00
2018-02-18T12:12:39.389Z,592.00
2018-02-18T12:13:39.385Z,572.00
2018-02-18T12:14:39.384Z,572.00
2018-02-18T12:15:39.375Z,596.00
2018-02-18T12:16:39.384Z,628.00
2018-02-18T12:17:39.363Z,652.00
2018-02-18T12:18:39.360Z,680.00
2018-02-18T12:19:39.353Z,700.00
2018-02-18T12:20:39.334Z,716.00
2018-02-18T12:21:39.351Z,724.00
2018-02-18T12:22:39.329Z,712.00
2018-02-18T12:23:39.342Z,716.00
2018-02-18T12:24:39.320Z,728.00
2018-02-18T12:25:39.311Z,768.00
2018-02-18T12:26:39.313Z,808.00
2018-02-18T12:27:39.318Z,840.00
2018-02-18T12:28:39.297Z,860.00
2018-02-18T12:29:39.312Z,872.00
2018-02-18T12:30:39.288Z,868.00
2018-02-18T12:31:39.284Z,840.00
2018-02-18T12:32:39.300Z,800.00
2018-02-18T12:33:39.274Z,756.00
2018-02-18T12:34:39.270Z,724.00
2018-02-18T12:35:39.286Z,692.00
2018-02-18T12:36:39.278Z,668.00
2018-02-18T12:37:39.276Z,660.00
2018-02-18T12:38:39.257Z,668.00
2018-02-18T12:39:39.269Z,692.00
2018-02-18T12:40:39.265Z,712.00
2018-02-18T12:41:39.256Z,740.00
2018-02-18T12:42:39.240Z,768.00
2018-02-18T12:43:39.248Z,796.00
2018-02-18T12:44:39.248Z,824.00
2018-02-18T12:45:39.223Z,848.00
2018-02-18T12:46:39.218Z,860.00
2018-02-18T12:47:39.231Z,840.00
2018-02-18T12:48:39.226Z,880.00
2018-02-18T12:49:39.225Z,760.00
2018-02-18T12:50:39.229Z,732.00
2018-02-18T12:51:39.219Z,712.00
2018-02-18T12:52:39.193Z,704.00
2018-02-18T12:53:39.189Z,708.00
2018-02-18T12:54:39.193Z,720.00
2018-02-18T12:55:39.186Z,736.00
2018-02-18T12:56:39.227Z,744.00
2018-02-18T12:57:39.203Z,740.00
2018-02-18T12:58:39.169Z,748.00
2018-02-18T12:59:39.164Z,764.00
2018-02-18T13:00:39.160Z,764.00
2018-02-18T13:01:39.160Z,736.00
2018-02-18T13:02:39.167Z,704.00
2018-02-18T13:03:39.166Z,672.00